createdAt,value
2018-04-24T00:01:43.339Z,12.00
2018-04-24T00:04:10.955Z,12.50
2018-04-24T00:06:38.559Z,15.63
2018-04-24T00:09:06.912Z,11.20
2018-04-24T00:11:34.529Z,14.43
2018-04-24T00:14:02.115Z,10.40
2018-04-24T00:16:29.723Z,11.90
2018-04-24T00:18:57.316Z,14.90
2018-04-24T00:21:24.944Z,14.23
2018-04-24T00:23:52.532Z,12.20
2018-04-24T00:26:20.148Z,11.57
2018-04-24T00:28:48.504Z,12.47
2018-04-24T00:31:16.095Z,16.03
2018-04-24T00:33:44.481Z,11.87
2018-04-24T00:36:12.831Z,14.93
2018-04-24T00:38:40.443Z,17.63
2018-04-24T00:41:08.034Z,14.07
2018-04-24T00:43:35.644Z,13.57
2018-04-24T00:46:04.000Z,12.10
2018-04-24T00:48:31.608Z,12.70
2018-04-24T00:50:59.206Z,11.47
2018-04-24T00:53:38.822Z,11.43
2018-04-24T00:56:06.437Z,13.90
2018-04-24T00:58:34.805Z,11.97
2018-04-24T01:01:03.197Z,13.53
2018-04-24T01:03:31.564Z,14.27
2018-04-24T01:05:59.184Z,13.73
2018-04-24T01:08:26.782Z,13.10
2018-04-24T01:10:54.425Z,15.63
2018-04-24T01:13:22.028Z,10.93
2018-04-24T01:15:49.625Z,14.53
2018-04-24T01:18:17.239Z,14.03
2018-04-24T01:20:45.598Z,15.90
2018-04-24T01:23:13.217Z,14.13
2018-04-24T01:25:40.815Z,12.73
2018-04-24T01:28:08.443Z,14.00
2018-04-24T01:30:36.040Z,15.27
2018-04-24T01:33:03.636Z,15.80
2018-04-24T01:35:31.262Z,19.90
2018-04-24T01:37:58.994Z,12.07
2018-04-24T01:40:26.611Z,16.90
2018-04-24T01:42:54.968Z,18.03
2018-04-24T01:45:22.590Z,14.83
2018-04-24T01:47:50.194Z,21.20
2018-04-24T01:50:17.783Z,15.27
2018-04-24T01:52:46.300Z,17.23
2018-04-24T01:55:13.891Z,14.43
2018-04-24T01:57:41.503Z,16.10
2018-04-24T02:00:09.110Z,17.67
2018-04-24T02:02:36.723Z,11.70
2018-04-24T02:05:09.372Z,14.93
2018-04-24T02:07:37.753Z,14.83
2018-04-24T02:10:06.125Z,15.87
2018-04-24T02:12:33.716Z,15.00
2018-04-24T02:15:01.344Z,15.47
2018-04-24T02:17:29.710Z,14.43
2018-04-24T02:19:57.327Z,13.60
2018-04-24T02:22:25.006Z,15.90
2018-04-24T02:24:52.647Z,14.07
2018-04-24T02:27:20.239Z,13.10
2018-04-24T02:29:47.831Z,12.67
2018-04-24T02:32:16.228Z,11.60
2018-04-24T02:34:44.585Z,13.17
2018-04-24T02:37:12.992Z,16.10
2018-04-24T02:39:51.653Z,15.43
2018-04-24T02:42:19.277Z,13.40
2018-04-24T02:44:46.867Z,14.87
2018-04-24T02:47:14.458Z,14.90
2018-04-24T02:49:42.075Z,18.43
2018-04-24T02:52:09.688Z,14.63
2018-04-24T02:54:37.311Z,18.87
2018-04-24T02:57:04.912Z,17.10
2018-04-24T02:59:32.532Z,20.17
2018-04-24T03:02:00.124Z,13.90
2018-04-24T03:04:27.715Z,14.50
2018-04-24T03:06:56.092Z,16.53
2018-04-24T03:09:24.516Z,15.80
2018-04-24T03:11:52.221Z,17.20
2018-04-24T03:14:19.762Z,18.07
2018-04-24T03:16:47.361Z,17.87
2018-04-24T03:19:15.755Z,23.70
2018-04-24T03:21:43.335Z,17.00
2018-04-24T03:24:10.951Z,16.90
2018-04-24T03:26:39.313Z,15.90
2018-04-24T03:29:11.508Z,16.50
2018-04-24T03:31:39.852Z,18.43
2018-04-24T03:34:07.445Z,17.23
2018-04-24T03:36:35.824Z,17.67
2018-04-24T03:39:04.194Z,19.40
2018-04-24T03:41:32.571Z,21.03
2018-04-24T03:44:00.948Z,15.57
2018-04-24T03:46:29.339Z,13.93
2018-04-24T03:48:57.697Z,19.27
2018-04-24T03:51:25.295Z,15.67
2018-04-24T03:53:52.941Z,16.73
2018-04-24T03:56:21.303Z,18.20
2018-04-24T03:58:48.912Z,18.50
2018-04-24T04:01:16.519Z,23.33
2018-04-24T04:03:44.132Z,21.30
2018-04-24T04:06:11.736Z,16.60
2018-04-24T04:08:39.345Z,14.13
2018-04-24T04:11:06.959Z,13.23
2018-04-24T04:13:34.545Z,16.57
2018-04-24T04:16:02.951Z,17.10
2018-04-24T04:18:42.404Z,17.00
2018-04-24T04:21:21.849Z,23.40
2018-04-24T04:24:02.100Z,20.37
2018-04-24T04:26:29.711Z,20.47
2018-04-24T04:28:58.073Z,17.70
2018-04-24T04:31:25.668Z,20.03
2018-04-24T04:33:53.301Z,16.47
2018-04-24T04:36:26.701Z,22.10
2018-04-24T04:38:54.312Z,19.40
2018-04-24T04:41:21.972Z,20.20
2018-04-24T04:43:49.537Z,29.03
2018-04-24T04:46:17.136Z,19.30
2018-04-24T04:48:44.755Z,19.53
2018-04-24T04:51:12.356Z,18.10
2018-04-24T04:53:40.722Z,16.50
2018-04-24T04:56:08.410Z,23.17
2018-04-24T04:58:38.738Z,15.50
2018-04-24T05:01:07.193Z,18.00
2018-04-24T05:03:34.775Z,20.40
2018-04-24T05:06:02.395Z,18.60
2018-04-24T05:08:29.988Z,19.80
2018-04-24T05:10:57.584Z,15.77
2018-04-24T05:13:25.963Z,20.20
2018-04-24T05:15:53.576Z,19.77
2018-04-24T05:18:21.200Z,17.30
2018-04-24T05:20:48.791Z,15.83
2018-04-24T05:23:16.429Z,20.00
2018-04-24T05:25:44.028Z,20.03
2018-04-24T05:28:11.627Z,19.73
2018-04-24T05:30:40.043Z,20.40
2018-04-24T05:33:07.627Z,18.37
2018-04-24T05:35:35.248Z,16.40
2018-04-24T05:38:02.835Z,17.07
2018-04-24T05:40:30.445Z,20.80
2018-04-24T05:42:58.795Z,16.27
2018-04-24T05:45:26.442Z,17.27
2018-04-24T05:47:54.022Z,17.60
2018-04-24T05:50:22.593Z,22.77
2018-04-24T05:52:50.200Z,17.27
2018-04-24T05:55:17.793Z,15.27
2018-04-24T05:57:45.448Z,15.47
2018-04-24T06:00:13.052Z,16.77
2018-04-24T06:02:59.962Z,14.87
2018-04-24T06:05:27.520Z,23.43
2018-04-24T06:07:55.116Z,16.57
2018-04-24T06:10:22.742Z,18.60
2018-04-24T06:12:51.317Z,19.33
2018-04-24T06:15:18.936Z,16.87
2018-04-24T06:17:46.528Z,16.60
2018-04-24T06:20:14.153Z,12.80
2018-04-24T06:22:41.752Z,20.93
2018-04-24T06:25:09.355Z,21.63
2018-04-24T06:27:37.749Z,13.60
2018-04-24T06:30:05.344Z,21.43
2018-04-24T06:32:32.970Z,12.90
2018-04-24T06:35:00.584Z,13.03
2018-04-24T06:37:28.203Z,12.83
2018-04-24T06:39:55.840Z,15.70
2018-04-24T06:42:24.289Z,12.10
2018-04-24T06:44:51.864Z,10.80
2018-04-24T06:47:19.451Z,17.23
2018-04-24T06:49:47.071Z,16.03
2018-04-24T06:52:14.664Z,16.30
2018-04-24T06:54:43.020Z,12.73
2018-04-24T06:57:10.647Z,15.00
2018-04-24T06:59:38.245Z,11.53
2018-04-24T07:02:05.892Z,13.10
2018-04-24T07:04:33.487Z,11.60
2018-04-24T07:07:01.862Z,13.23
2018-04-24T07:09:30.242Z,12.33
2018-04-24T07:11:58.610Z,10.80
2018-04-24T07:14:26.329Z,11.47
2018-04-24T07:16:53.983Z,9.90
2018-04-24T07:19:22.339Z,14.50
2018-04-24T07:21:49.929Z,9.20
2018-04-24T07:24:17.514Z,11.30
2018-04-24T07:26:45.115Z,12.97
2018-04-24T07:29:13.476Z,9.97
2018-04-24T07:31:41.862Z,12.20
2018-04-24T07:34:10.218Z,10.10
2018-04-24T07:36:37.847Z,13.13
2018-04-24T07:39:06.150Z,12.10
2018-04-24T07:41:33.745Z,8.13
2018-04-24T07:44:02.148Z,11.00
2018-04-24T07:46:29.819Z,11.03
2018-04-24T07:48:57.380Z,11.93
2018-04-24T07:51:24.971Z,11.33
2018-04-24T07:53:52.605Z,13.20
2018-04-24T07:56:20.209Z,10.10
2018-04-24T07:58:47.795Z,8.80
2018-04-24T08:01:15.416Z,9.60
2018-04-24T08:03:43.004Z,12.03
2018-04-24T08:06:11.382Z,8.77
2018-04-24T08:08:39.737Z,8.07
2018-04-24T08:11:07.354Z,10.47
2018-04-24T08:13:34.948Z,9.43
2018-04-24T08:16:02.541Z,11.10
2018-04-24T08:18:30.927Z,7.90
2018-04-24T08:20:59.289Z,8.47
2018-04-24T08:23:26.899Z,9.77
2018-04-24T08:25:59.206Z,7.33
2018-04-24T08:28:26.827Z,7.83
2018-04-24T08:30:54.409Z,12.47
2018-04-24T08:33:22.000Z,9.67
2018-04-24T08:35:49.631Z,12.30
2018-04-24T08:38:17.231Z,8.10
2018-04-24T08:40:44.856Z,7.43
2018-04-24T08:43:12.440Z,8.90
2018-04-24T08:45:40.062Z,9.10
2018-04-24T08:48:07.659Z,10.67
2018-04-24T08:50:35.252Z,6.73
2018-04-24T08:53:03.629Z,10.87
2018-04-24T08:55:34.024Z,7.27
2018-04-24T08:58:01.654Z,9.00
2018-04-24T09:00:29.243Z,5.93
2018-04-24T09:02:56.861Z,6.70
2018-04-24T09:05:24.457Z,7.60
2018-04-24T09:07:52.169Z,6.33
2018-04-24T09:10:19.788Z,11.23
2018-04-24T09:12:47.397Z,9.30
2018-04-24T09:15:15.020Z,8.00
2018-04-24T09:17:42.619Z,11.20
2018-04-24T09:20:10.298Z,6.50
2018-04-24T09:22:37.891Z,9.97
2018-04-24T09:25:05.477Z,6.97
2018-04-24T09:27:37.238Z,7.87
2018-04-24T09:30:05.598Z,7.17
2018-04-24T09:32:33.201Z,9.23
2018-04-24T09:35:00.796Z,6.67
2018-04-24T09:37:28.413Z,10.37
2018-04-24T09:39:56.756Z,7.50
2018-04-24T09:42:24.343Z,10.00
2018-04-24T09:44:52.727Z,6.47
2018-04-24T09:47:21.087Z,10.27
2018-04-24T09:49:48.702Z,5.77
2018-04-24T09:52:16.283Z,5.40
2018-04-24T09:54:43.906Z,7.47
2018-04-24T09:57:11.499Z,7.33
2018-04-24T09:59:39.100Z,4.27
2018-04-24T10:02:07.518Z,8.50
2018-04-24T10:04:35.091Z,6.60
2018-04-24T10:07:02.710Z,6.63
2018-04-24T10:09:31.063Z,7.10
2018-04-24T10:11:58.672Z,7.33
2018-04-24T10:14:26.291Z,5.20
2018-04-24T10:16:53.905Z,7.37
2018-04-24T10:19:21.511Z,4.63
2018-04-24T10:21:49.095Z,7.17
2018-04-24T10:24:18.487Z,5.23
2018-04-24T10:26:46.073Z,8.23
2018-04-24T10:29:13.688Z,5.93
2018-04-24T10:31:41.276Z,4.40
2018-04-24T10:34:09.635Z,5.07
2018-04-24T10:36:37.248Z,4.27
2018-04-24T10:39:07.744Z,6.37
2018-04-24T10:41:36.124Z,6.60
2018-04-24T10:44:04.476Z,5.53
2018-04-24T10:46:32.108Z,7.60
2018-04-24T10:48:59.700Z,8.40
2018-04-24T10:51:27.336Z,7.67
2018-04-24T10:53:54.920Z,6.80
2018-04-24T10:56:22.513Z,5.73
2018-04-24T10:58:50.892Z,5.37
2018-04-24T11:01:19.265Z,5.30
2018-04-24T11:03:47.633Z,5.43
2018-04-24T11:06:16.040Z,8.77
2018-04-24T11:08:44.757Z,6.37
2018-04-24T11:11:12.366Z,8.20
2018-04-24T11:13:40.715Z,7.83
2018-04-24T11:16:08.306Z,12.27
2018-04-24T11:18:37.743Z,10.83
2018-04-24T11:21:05.340Z,7.40
2018-04-24T11:23:36.403Z,10.60
2018-04-24T11:26:04.159Z,9.90
2018-04-24T11:28:31.765Z,8.87
2018-04-24T11:30:59.373Z,7.50
2018-04-24T11:33:26.968Z,10.00
2018-04-24T11:35:55.415Z,7.00
2018-04-24T11:38:22.949Z,9.33
2018-04-24T11:40:50.543Z,6.03
2018-04-24T11:43:18.152Z,7.20
2018-04-24T11:45:45.757Z,9.97
2018-04-24T11:48:13.369Z,7.67
2018-04-24T11:50:40.956Z,11.40
2018-04-24T11:53:08.537Z,8.30
2018-04-24T11:55:37.002Z,7.83
2018-04-24T11:58:04.596Z,7.30
2018-04-24T12:00:32.205Z,8.33
2018-04-24T12:02:59.787Z,11.50
2018-04-24T12:05:28.384Z,9.77
2018-04-24T12:07:56.027Z,8.03
2018-04-24T12:10:23.626Z,6.70
2018-04-24T12:12:51.237Z,7.73
2018-04-24T12:15:18.832Z,6.67
2018-04-24T12:17:46.439Z,9.33
2018-04-24T12:20:14.016Z,7.43
2018-04-24T12:22:41.600Z,11.80
2018-04-24T12:25:09.212Z,11.80
2018-04-24T12:27:37.572Z,13.03
2018-04-24T12:30:05.224Z,11.10
2018-04-24T12:32:32.815Z,9.50
2018-04-24T12:35:01.170Z,9.23
2018-04-24T12:37:28.785Z,9.70
2018-04-24T12:39:56.377Z,12.53
2018-04-24T12:42:24.020Z,15.30
2018-04-24T12:44:51.611Z,14.20
2018-04-24T12:47:19.199Z,8.97
2018-04-24T12:49:47.586Z,10.23
2018-04-24T12:52:15.179Z,9.30
2018-04-24T12:54:42.795Z,12.90
2018-04-24T12:57:11.197Z,10.50
2018-04-24T12:59:38.810Z,10.40
2018-04-24T13:02:06.395Z,9.93
2018-04-24T13:04:34.828Z,8.20
2018-04-24T13:07:02.403Z,12.23
2018-04-24T13:09:30.002Z,10.53
2018-04-24T13:11:58.388Z,9.00
2018-04-24T13:14:25.985Z,18.57
2018-04-24T13:16:53.599Z,11.10
2018-04-24T13:19:21.948Z,9.13
2018-04-24T13:21:49.581Z,9.23
2018-04-24T13:24:17.197Z,10.23
2018-04-24T13:26:45.563Z,13.27
2018-04-24T13:29:13.978Z,9.27
2018-04-24T13:31:41.591Z,8.27
2018-04-24T13:34:10.261Z,9.13
2018-04-24T13:36:37.867Z,10.33
2018-04-24T13:39:06.216Z,15.20
2018-04-24T13:41:33.816Z,7.97
2018-04-24T13:44:01.414Z,9.73
2018-04-24T13:46:30.485Z,8.50
2018-04-24T13:48:58.140Z,9.90
2018-04-24T13:51:25.727Z,8.33
2018-04-24T13:53:53.328Z,8.20
2018-04-24T13:56:21.711Z,7.50
2018-04-24T13:58:50.090Z,8.43
2018-04-24T14:01:18.528Z,11.63
2018-04-24T14:03:46.150Z,9.43
2018-04-24T14:06:16.529Z,7.70
2018-04-24T14:08:47.295Z,10.77
2018-04-24T14:11:16.796Z,8.53
2018-04-24T14:13:45.288Z,7.83
2018-04-24T14:16:14.676Z,9.43
2018-04-24T14:18:43.132Z,7.87
2018-04-24T14:21:13.788Z,8.40
2018-04-24T14:23:41.403Z,13.53
2018-04-24T14:26:09.024Z,8.73
2018-04-24T14:28:37.379Z,11.30
2018-04-24T14:31:04.964Z,7.43
2018-04-24T14:33:33.348Z,7.43
2018-04-24T14:36:02.619Z,15.23
2018-04-24T14:38:30.240Z,11.90
2018-04-24T14:40:57.839Z,9.00
2018-04-24T14:43:25.449Z,9.00
2018-04-24T14:45:53.060Z,6.70
2018-04-24T14:48:20.658Z,16.07
2018-04-24T14:50:49.957Z,5.80
2018-04-24T14:53:18.313Z,9.03
2018-04-24T14:55:46.700Z,7.37
2018-04-24T14:58:14.356Z,6.80
2018-04-24T15:00:41.936Z,5.90
2018-04-24T15:03:10.361Z,5.90
2018-04-24T15:05:37.948Z,6.53
2018-04-24T15:08:05.544Z,8.50
2018-04-24T15:10:33.140Z,6.37
2018-04-24T15:13:00.751Z,9.23
2018-04-24T15:15:29.100Z,8.03
2018-04-24T15:17:56.816Z,8.83
2018-04-24T15:20:24.406Z,7.20
2018-04-24T15:22:52.039Z,7.53
2018-04-24T15:25:19.656Z,8.93
2018-04-24T15:27:47.252Z,7.33
2018-04-24T15:30:15.632Z,9.20
2018-04-24T15:32:43.981Z,7.10
2018-04-24T15:35:12.388Z,13.63
2018-04-24T15:37:40.001Z,9.50
2018-04-24T15:40:07.611Z,8.60
2018-04-24T15:42:35.980Z,7.60
2018-04-24T15:45:04.339Z,10.07
2018-04-24T15:47:32.020Z,6.83
2018-04-24T15:50:00.371Z,6.90
2018-04-24T15:52:27.991Z,6.47
2018-04-24T15:54:55.607Z,12.73
2018-04-24T15:57:23.967Z,5.83
2018-04-24T15:59:51.709Z,5.27
2018-04-24T16:02:19.423Z,10.07
2018-04-24T16:04:48.881Z,4.73
2018-04-24T16:07:16.588Z,5.10
2018-04-24T16:09:44.968Z,4.57
2018-04-24T16:12:13.316Z,6.77
2018-04-24T16:14:40.917Z,6.20
2018-04-24T16:17:09.328Z,6.20
2018-04-24T16:19:36.989Z,5.23
2018-04-24T16:22:04.763Z,7.10
2018-04-24T16:24:32.579Z,5.03
2018-04-24T16:27:00.965Z,4.50
2018-04-24T16:29:29.338Z,5.30
2018-04-24T16:31:57.695Z,6.70
2018-04-24T16:34:25.305Z,4.90
2018-04-24T16:36:52.887Z,6.60
2018-04-24T16:39:20.501Z,7.37
2018-04-24T16:41:48.889Z,5.23
2018-04-24T16:44:18.248Z,5.47
2018-04-24T16:46:45.871Z,8.50
2018-04-24T16:49:13.472Z,7.20
2018-04-24T16:51:41.216Z,7.90
2018-04-24T16:54:08.800Z,8.03
2018-04-24T16:56:36.407Z,6.87
2018-04-24T16:59:04.048Z,12.50
2018-04-24T17:01:32.581Z,9.00
2018-04-24T17:04:01.143Z,8.93
2018-04-24T17:06:28.747Z,7.93
2018-04-24T17:08:56.364Z,6.90
2018-04-24T17:11:23.997Z,8.77
2018-04-24T17:13:53.603Z,9.20
2018-04-24T17:16:21.955Z,7.33
2018-04-24T17:18:49.536Z,9.00
2018-04-24T17:21:17.150Z,7.30
2018-04-24T17:23:44.818Z,7.17
2018-04-24T17:26:12.428Z,6.40
2018-04-24T17:28:40.778Z,6.10
2018-04-24T17:31:08.527Z,7.07
2018-04-24T17:36:10.764Z,11.10
2018-04-24T17:38:38.390Z,10.63
2018-04-24T17:41:09.139Z,7.83
2018-04-24T17:43:36.726Z,9.60
2018-04-24T17:46:05.100Z,9.77
2018-04-24T17:48:33.451Z,8.47
2018-04-24T17:51:01.046Z,10.20
2018-04-24T17:53:28.666Z,8.83
2018-04-24T17:55:56.248Z,8.83
2018-04-24T17:58:23.978Z,11.10
2018-04-24T18:00:53.491Z,6.93
2018-04-24T18:03:21.101Z,7.30
2018-04-24T18:05:49.443Z,9.73
2018-04-24T18:08:17.023Z,8.00
2018-04-24T18:10:45.391Z,6.20
2018-04-24T18:13:13.301Z,6.90
2018-04-24T18:15:40.903Z,9.97
2018-04-24T18:18:08.491Z,12.20
2018-04-24T18:20:36.863Z,7.67
2018-04-24T18:23:04.455Z,6.67
2018-04-24T18:25:32.040Z,7.60
2018-04-24T18:27:59.708Z,6.10
2018-04-24T18:30:27.296Z,6.93
2018-04-24T18:32:55.680Z,6.80
2018-04-24T18:35:23.273Z,6.10
2018-04-24T18:37:51.655Z,7.20
2018-04-24T18:40:19.281Z,9.40
2018-04-24T18:42:46.867Z,7.07
2018-04-24T18:45:15.248Z,8.33
2018-04-24T18:47:43.602Z,7.00
2018-04-24T18:50:11.329Z,6.17
2018-04-24T18:52:38.925Z,9.93
2018-04-24T18:55:06.543Z,7.13
2018-04-24T18:57:34.132Z,10.17
2018-04-24T19:00:02.916Z,7.23
2018-04-24T19:02:30.540Z,6.60
2018-04-24T19:04:58.129Z,7.07
2018-04-24T19:07:25.790Z,13.90
2018-04-24T19:09:53.391Z,7.10
2018-04-24T19:12:21.772Z,6.43
2018-04-24T19:14:50.124Z,10.00
2018-04-24T19:17:17.729Z,6.60
2018-04-24T19:19:46.284Z,6.90
2018-04-24T19:22:14.852Z,9.60
2018-04-24T19:24:50.091Z,7.63
2018-04-24T19:27:17.687Z,7.57
2018-04-24T19:29:46.052Z,8.40
2018-04-24T19:32:20.146Z,7.80
2018-04-24T19:34:47.761Z,7.00
2018-04-24T19:37:15.348Z,9.57
2018-04-24T19:39:48.695Z,8.77
2018-04-24T19:42:17.051Z,11.47
2018-04-24T19:44:44.644Z,8.00
2018-04-24T19:47:13.015Z,7.90
2018-04-24T19:49:47.223Z,7.90
2018-04-24T19:52:15.593Z,9.27
2018-04-24T19:54:49.567Z,10.20
2018-04-24T19:57:17.181Z,10.13
2018-04-24T19:59:49.004Z,9.00
2018-04-24T20:02:16.615Z,9.53
2018-04-24T20:04:44.228Z,11.60
2018-04-24T20:07:13.844Z,12.00
2018-04-24T20:09:41.474Z,10.53
2018-04-24T20:12:09.068Z,13.53
2018-04-24T20:14:36.671Z,15.10
2018-04-24T20:17:04.279Z,13.83
2018-04-24T20:19:31.907Z,13.37
2018-04-24T20:21:59.499Z,10.80
2018-04-24T20:24:27.108Z,12.70
2018-04-24T20:26:54.732Z,11.43
2018-04-24T20:29:22.353Z,13.50
2018-04-24T20:31:49.968Z,14.23
2018-04-24T20:34:18.360Z,13.57
2018-04-24T20:36:46.746Z,13.97
2018-04-24T20:39:15.108Z,14.30
2018-04-24T20:41:43.459Z,13.60
2018-04-24T20:44:11.074Z,13.83
2018-04-24T20:46:38.674Z,12.90
2018-04-24T20:49:06.291Z,19.20
2018-04-24T20:51:33.919Z,11.90
2018-04-24T20:54:07.959Z,12.50
2018-04-24T20:56:36.316Z,14.80
2018-04-24T20:59:03.913Z,12.63
2018-04-24T21:01:33.904Z,12.60
2018-04-24T21:04:02.261Z,12.77
2018-04-24T21:06:29.867Z,12.93
2018-04-24T21:08:57.460Z,12.77
2018-04-24T21:11:25.108Z,14.43
2018-04-24T21:13:52.699Z,12.70
2018-04-24T21:16:20.286Z,13.57
2018-04-24T21:18:51.646Z,13.03
2018-04-24T21:21:20.001Z,17.07
2018-04-24T21:23:47.967Z,19.63
2018-04-24T21:26:15.560Z,17.70
2018-04-24T21:28:43.924Z,18.23
2018-04-24T21:31:12.307Z,13.00
2018-04-24T21:33:40.668Z,14.67
2018-04-24T21:36:13.264Z,11.93
2018-04-24T21:38:41.616Z,14.97
2018-04-24T21:41:09.248Z,13.33
2018-04-24T21:43:36.838Z,12.20
2018-04-24T21:46:04.438Z,13.80
2018-04-24T21:48:32.060Z,13.20
2018-04-24T21:50:59.647Z,12.67
2018-04-24T21:53:28.031Z,16.03
2018-04-24T21:55:57.432Z,12.23
2018-04-24T21:58:25.820Z,17.00
2018-04-24T22:00:53.411Z,12.63
2018-04-24T22:03:21.000Z,15.80
2018-04-24T22:05:48.863Z,13.93
2018-04-24T22:08:16.456Z,17.17
2018-04-24T22:10:44.843Z,15.30
2018-04-24T22:13:13.202Z,18.33
2018-04-24T22:15:40.836Z,18.97
2018-04-24T22:18:08.447Z,14.50
2018-04-24T22:20:36.045Z,14.67
2018-04-24T22:23:03.655Z,14.50
2018-04-24T22:25:32.020Z,14.57
2018-04-24T22:27:59.641Z,12.40
2018-04-24T22:30:27.236Z,12.73
2018-04-24T22:32:54.871Z,13.37
2018-04-24T22:35:22.480Z,13.83
2018-04-24T22:37:56.601Z,14.20
2018-04-24T22:40:24.274Z,16.33
2018-04-24T22:42:52.621Z,13.80
2018-04-24T22:45:20.344Z,12.07
2018-04-24T22:47:47.944Z,14.07
2018-04-24T22:50:15.540Z,13.17
2018-04-24T22:52:43.150Z,15.00
2018-04-24T22:55:10.742Z,14.50
2018-04-24T22:57:38.372Z,15.00
2018-04-24T23:00:05.975Z,12.60
2018-04-24T23:02:33.596Z,14.57
2018-04-24T23:05:01.184Z,13.00
2018-04-24T23:07:29.545Z,13.50
2018-04-24T23:09:57.661Z,13.27
2018-04-24T23:12:37.227Z,14.47
2018-04-24T23:15:16.587Z,14.60
2018-04-24T23:17:56.073Z,16.77
2018-04-24T23:20:23.195Z,13.73
2018-04-24T23:22:51.558Z,14.03
2018-04-24T23:25:19.236Z,16.10
2018-04-24T23:27:47.600Z,12.70
2018-04-24T23:30:15.219Z,13.53
2018-04-24T23:32:42.813Z,14.30
2018-04-24T23:35:10.410Z,14.93
2018-04-24T23:37:38.798Z,12.90
2018-04-24T23:40:07.161Z,15.80
2018-04-24T23:42:35.551Z,14.13
2018-04-24T23:45:03.912Z,13.73
2018-04-24T23:47:31.538Z,14.50
2018-04-24T23:49:59.174Z,15.80
2018-04-24T23:52:26.780Z,14.73
2018-04-24T23:54:54.457Z,12.37
2018-04-24T23:57:22.068Z,13.23
2018-04-24T23:59:49.683Z,19.30
